sensor_id;sensor_type;location;lat;lon;timestamp;P1;durP1;ratioP1;P2;durP2;ratioP2
57826;SDS011;43656;57.746;11.780;2024-02-28T00:01:57;6.38;;;5.32;;
57826;SDS011;43656;57.746;11.780;2024-02-28T00:04:22;6.72;;;5.47;;
57826;SDS011;43656;57.746;11.780;2024-02-28T00:06:48;7.13;;;5.65;;
57826;SDS011;43656;57.746;11.780;2024-02-28T00:09:13;8.98;;;6.13;;
57826;SDS011;43656;57.746;11.780;2024-02-28T00:11:42;9.85;;;6.10;;
57826;SDS011;43656;57.746;11.780;2024-02-28T00:14:09;7.60;;;6.25;;
57826;SDS011;43656;57.746;11.780;2024-02-28T00:16:35;8.35;;;6.70;;
57826;SDS011;43656;57.746;11.780;2024-02-28T00:19:01;10.65;;;7.05;;
57826;SDS011;43656;57.746;11.780;2024-02-28T00:21:26;7.68;;;6.35;;
57826;SDS011;43656;57.746;11.780;2024-02-28T00:23:51;9.40;;;6.50;;
57826;SDS011;43656;57.746;11.780;2024-02-28T00:26:17;7.57;;;6.03;;
57826;SDS011;43656;57.746;11.780;2024-02-28T00:28:42;8.52;;;6.22;;
57826;SDS011;43656;57.746;11.780;2024-02-28T00:31:08;7.25;;;5.47;;
57826;SDS011;43656;57.746;11.780;2024-02-28T00:33:33;7.63;;;5.68;;
57826;SDS011;43656;57.746;11.780;2024-02-28T00:35:58;6.55;;;5.78;;
57826;SDS011;43656;57.746;11.780;2024-02-28T00:38:24;8.40;;;6.30;;
57826;SDS011;43656;57.746;11.780;2024-02-28T00:40:49;6.85;;;6.07;;
57826;SDS011;43656;57.746;11.780;2024-02-28T00:43:15;7.30;;;6.13;;
57826;SDS011;43656;57.746;11.780;2024-02-28T00:45:40;9.00;;;6.03;;
57826;SDS011;43656;57.746;11.780;2024-02-28T00:48:11;8.68;;;6.90;;
57826;SDS011;43656;57.746;11.780;2024-02-28T00:50:37;7.60;;;6.30;;
57826;SDS011;43656;57.746;11.780;2024-02-28T00:53:02;9.70;;;6.65;;
57826;SDS011;43656;57.746;11.780;2024-02-28T00:55:28;9.32;;;7.00;;
57826;SDS011;43656;57.746;11.780;2024-02-28T00:57:53;10.27;;;6.47;;
57826;SDS011;43656;57.746;11.780;2024-02-28T01:00:18;10.15;;;7.05;;
57826;SDS011;43656;57.746;11.780;2024-02-28T01:02:44;8.02;;;6.75;;
57826;SDS011;43656;57.746;11.780;2024-02-28T01:05:10;9.90;;;7.13;;
57826;SDS011;43656;57.746;11.780;2024-02-28T01:07:35;9.30;;;7.15;;
57826;SDS011;43656;57.746;11.780;2024-02-28T01:10:01;9.73;;;6.97;;
57826;SDS011;43656;57.746;11.780;2024-02-28T01:12:28;8.13;;;7.00;;
57826;SDS011;43656;57.746;11.780;2024-02-28T01:14:54;9.73;;;6.55;;
57826;SDS011;43656;57.746;11.780;2024-02-28T01:17:19;7.80;;;6.50;;
57826;SDS011;43656;57.746;11.780;2024-02-28T01:19:44;7.63;;;6.65;;
57826;SDS011;43656;57.746;11.780;2024-02-28T01:22:10;9.77;;;7.28;;
57826;SDS011;43656;57.746;11.780;2024-02-28T01:24:35;8.32;;;7.03;;
57826;SDS011;43656;57.746;11.780;2024-02-28T01:27:01;8.68;;;7.10;;
57826;SDS011;43656;57.746;11.780;2024-02-28T01:29:27;8.82;;;7.20;;
57826;SDS011;43656;57.746;11.780;2024-02-28T01:31:54;11.25;;;6.97;;
57826;SDS011;43656;57.746;11.780;2024-02-28T01:34:20;9.50;;;7.03;;
57826;SDS011;43656;57.746;11.780;2024-02-28T01:36:45;8.82;;;7.13;;
57826;SDS011;43656;57.746;11.780;2024-02-28T01:39:11;8.07;;;6.95;;
57826;SDS011;43656;57.746;11.780;2024-02-28T01:41:36;8.63;;;7.47;;
57826;SDS011;43656;57.746;11.780;2024-02-28T01:44:01;7.68;;;6.78;;
57826;SDS011;43656;57.746;11.780;2024-02-28T01:46:27;8.85;;;7.10;;
57826;SDS011;43656;57.746;11.780;2024-02-28T01:48:54;8.95;;;6.80;;
57826;SDS011;43656;57.746;11.780;2024-02-28T01:51:24;9.35;;;6.95;;
57826;SDS011;43656;57.746;11.780;2024-02-28T01:53:53;9.82;;;6.95;;
57826;SDS011;43656;57.746;11.780;2024-02-28T01:56:20;8.20;;;6.72;;
57826;SDS011;43656;57.746;11.780;2024-02-28T01:58:47;8.38;;;6.68;;
57826;SDS011;43656;57.746;11.780;2024-02-28T02:01:14;7.30;;;6.05;;
57826;SDS011;43656;57.746;11.780;2024-02-28T02:03:40;7.63;;;5.97;;
57826;SDS011;43656;57.746;11.780;2024-02-28T02:06:06;7.75;;;6.00;;
57826;SDS011;43656;57.746;11.780;2024-02-28T02:08:32;6.50;;;5.35;;
57826;SDS011;43656;57.746;11.780;2024-02-28T02:10:58;7.38;;;5.78;;
57826;SDS011;43656;57.746;11.780;2024-02-28T02:13:24;8.18;;;5.57;;
57826;SDS011;43656;57.746;11.780;2024-02-28T02:15:49;6.40;;;5.18;;
57826;SDS011;43656;57.746;11.780;2024-02-28T02:18:15;7.57;;;5.22;;
57826;SDS011;43656;57.746;11.780;2024-02-28T02:20:41;7.68;;;5.20;;
57826;SDS011;43656;57.746;11.780;2024-02-28T02:23:11;7.35;;;4.35;;
57826;SDS011;43656;57.746;11.780;2024-02-28T02:25:44;7.10;;;5.10;;
57826;SDS011;43656;57.746;11.780;2024-02-28T02:28:13;6.68;;;5.47;;
57826;SDS011;43656;57.746;11.780;2024-02-28T02:30:40;9.65;;;5.97;;
57826;SDS011;43656;57.746;11.780;2024-02-28T02:33:10;6.32;;;5.55;;
57826;SDS011;43656;57.746;11.780;2024-02-28T02:35:35;8.63;;;6.72;;
57826;SDS011;43656;57.746;11.780;2024-02-28T02:38:01;11.07;;;6.47;;
57826;SDS011;43656;57.746;11.780;2024-02-28T02:40:27;9.23;;;6.25;;
57826;SDS011;43656;57.746;11.780;2024-02-28T02:42:53;8.75;;;6.70;;
57826;SDS011;43656;57.746;11.780;2024-02-28T02:45:18;8.50;;;6.63;;
57826;SDS011;43656;57.746;11.780;2024-02-28T02:47:45;8.95;;;6.50;;
57826;SDS011;43656;57.746;11.780;2024-02-28T02:50:10;8.15;;;6.43;;
57826;SDS011;43656;57.746;11.780;2024-02-28T02:52:36;9.48;;;7.40;;
57826;SDS011;43656;57.746;11.780;2024-02-28T02:55:01;7.75;;;6.72;;
57826;SDS011;43656;57.746;11.780;2024-02-28T02:57:27;8.13;;;6.60;;
57826;SDS011;43656;57.746;11.780;2024-02-28T02:59:52;11.45;;;7.32;;
57826;SDS011;43656;57.746;11.780;2024-02-28T03:02:18;8.50;;;6.97;;
57826;SDS011;43656;57.746;11.780;2024-02-28T03:04:43;9.75;;;6.97;;
57826;SDS011;43656;57.746;11.780;2024-02-28T03:07:09;9.48;;;6.75;;
57826;SDS011;43656;57.746;11.780;2024-02-28T03:09:34;9.65;;;7.15;;
57826;SDS011;43656;57.746;11.780;2024-02-28T03:11:59;9.48;;;7.25;;
57826;SDS011;43656;57.746;11.780;2024-02-28T03:14:25;8.95;;;7.07;;
57826;SDS011;43656;57.746;11.780;2024-02-28T03:16:52;10.50;;;7.28;;
57826;SDS011;43656;57.746;11.780;2024-02-28T03:19:18;9.85;;;7.60;;
57826;SDS011;43656;57.746;11.780;2024-02-28T03:21:43;9.75;;;7.22;;
57826;SDS011;43656;57.746;11.780;2024-02-28T03:24:10;9.70;;;7.47;;
57826;SDS011;43656;57.746;11.780;2024-02-28T03:26:36;7.45;;;6.32;;
57826;SDS011;43656;57.746;11.780;2024-02-28T03:29:01;8.63;;;7.10;;
57826;SDS011;43656;57.746;11.780;2024-02-28T03:31:27;10.55;;;7.07;;
57826;SDS011;43656;57.746;11.780;2024-02-28T03:33:52;9.55;;;7.10;;
57826;SDS011;43656;57.746;11.780;2024-02-28T03:36:18;9.60;;;6.85;;
57826;SDS011;43656;57.746;11.780;2024-02-28T03:38:43;9.90;;;6.75;;
57826;SDS011;43656;57.746;11.780;2024-02-28T03:41:09;9.27;;;7.22;;
57826;SDS011;43656;57.746;11.780;2024-02-28T03:43:34;8.10;;;6.55;;
57826;SDS011;43656;57.746;11.780;2024-02-28T03:46:00;9.02;;;6.85;;
57826;SDS011;43656;57.746;11.780;2024-02-28T03:48:26;8.98;;;7.15;;
57826;SDS011;43656;57.746;11.780;2024-02-28T03:50:51;9.75;;;7.65;;
57826;SDS011;43656;57.746;11.780;2024-02-28T03:53:17;11.70;;;8.00;;
57826;SDS011;43656;57.746;11.780;2024-02-28T03:55:42;10.85;;;8.18;;
57826;SDS011;43656;57.746;11.780;2024-02-28T03:58:09;13.50;;;8.82;;
57826;SDS011;43656;57.746;11.780;2024-02-28T04:00:35;11.90;;;8.85;;
57826;SDS011;43656;57.746;11.780;2024-02-28T04:03:01;10.48;;;8.90;;
57826;SDS011;43656;57.746;11.780;2024-02-28T04:05:26;10.98;;;9.20;;
57826;SDS011;43656;57.746;11.780;2024-02-28T04:07:52;12.27;;;9.27;;
57826;SDS011;43656;57.746;11.780;2024-02-28T04:10:17;14.40;;;9.23;;
57826;SDS011;43656;57.746;11.780;2024-02-28T04:12:43;10.82;;;9.27;;
57826;SDS011;43656;57.746;11.780;2024-02-28T04:15:10;12.80;;;9.50;;
57826;SDS011;43656;57.746;11.780;2024-02-28T04:17:37;13.38;;;9.90;;
57826;SDS011;43656;57.746;11.780;2024-02-28T04:20:03;15.98;;;10.18;;
57826;SDS011;43656;57.746;11.780;2024-02-28T04:22:30;12.95;;;9.77;;
57826;SDS011;43656;57.746;11.780;2024-02-28T04:24:56;11.93;;;9.48;;
57826;SDS011;43656;57.746;11.780;2024-02-28T04:27:22;13.88;;;10.45;;
57826;SDS011;43656;57.746;11.780;2024-02-28T04:29:48;13.25;;;9.75;;
57826;SDS011;43656;57.746;11.780;2024-02-28T04:32:13;18.00;;;10.43;;
57826;SDS011;43656;57.746;11.780;2024-02-28T04:34:38;13.93;;;10.80;;
57826;SDS011;43656;57.746;11.780;2024-02-28T04:37:04;15.30;;;10.52;;
57826;SDS011;43656;57.746;11.780;2024-02-28T04:39:30;12.60;;;10.18;;
57826;SDS011;43656;57.746;11.780;2024-02-28T04:41:56;12.57;;;9.82;;
57826;SDS011;43656;57.746;11.780;2024-02-28T04:44:21;11.50;;;9.82;;
57826;SDS011;43656;57.746;11.780;2024-02-28T04:46:46;12.48;;;9.75;;
57826;SDS011;43656;57.746;11.780;2024-02-28T04:49:12;14.27;;;9.77;;
57826;SDS011;43656;57.746;11.780;2024-02-28T04:51:37;12.95;;;9.05;;
57826;SDS011;43656;57.746;11.780;2024-02-28T04:54:03;15.55;;;9.77;;
57826;SDS011;43656;57.746;11.780;2024-02-28T04:56:29;14.13;;;8.95;;
57826;SDS011;43656;57.746;11.780;2024-02-28T04:58:54;13.43;;;9.93;;
57826;SDS011;43656;57.746;11.780;2024-02-28T05:01:19;12.65;;;9.38;;
57826;SDS011;43656;57.746;11.780;2024-02-28T05:03:45;14.10;;;10.02;;
57826;SDS011;43656;57.746;11.780;2024-02-28T05:06:10;13.52;;;9.30;;
57826;SDS011;43656;57.746;11.780;2024-02-28T05:08:37;13.82;;;8.88;;
57826;SDS011;43656;57.746;11.780;2024-02-28T05:11:03;14.00;;;8.80;;
57826;SDS011;43656;57.746;11.780;2024-02-28T05:13:28;11.88;;;7.95;;
57826;SDS011;43656;57.746;11.780;2024-02-28T05:15:54;10.85;;;8.77;;
57826;SDS011;43656;57.746;11.780;2024-02-28T05:18:19;13.10;;;9.38;;
57826;SDS011;43656;57.746;11.780;2024-02-28T05:20:45;11.02;;;7.70;;
57826;SDS011;43656;57.746;11.780;2024-02-28T05:23:12;13.18;;;8.85;;
57826;SDS011;43656;57.746;11.780;2024-02-28T05:25:38;13.95;;;9.27;;
57826;SDS011;43656;57.746;11.780;2024-02-28T05:28:04;15.13;;;9.23;;
57826;SDS011;43656;57.746;11.780;2024-02-28T05:30:29;12.40;;;9.10;;
57826;SDS011;43656;57.746;11.780;2024-02-28T05:32:55;15.07;;;8.60;;
57826;SDS011;43656;57.746;11.780;2024-02-28T05:35:20;12.68;;;8.65;;
57826;SDS011;43656;57.746;11.780;2024-02-28T05:37:46;10.95;;;7.95;;
57826;SDS011;43656;57.746;11.780;2024-02-28T05:40:11;15.95;;;8.25;;
57826;SDS011;43656;57.746;11.780;2024-02-28T05:42:38;11.93;;;7.30;;
57826;SDS011;43656;57.746;11.780;2024-02-28T05:45:04;14.60;;;7.78;;
57826;SDS011;43656;57.746;11.780;2024-02-28T05:47:30;16.85;;;8.20;;
57826;SDS011;43656;57.746;11.780;2024-02-28T05:49:56;8.90;;;7.22;;
57826;SDS011;43656;57.746;11.780;2024-02-28T05:52:23;14.02;;;7.90;;
57826;SDS011;43656;57.746;11.780;2024-02-28T05:54:50;13.05;;;7.80;;
57826;SDS011;43656;57.746;11.780;2024-02-28T05:57:16;13.98;;;7.60;;
57826;SDS011;43656;57.746;11.780;2024-02-28T05:59:41;16.02;;;8.70;;
57826;SDS011;43656;57.746;11.780;2024-02-28T06:02:07;10.80;;;8.38;;
57826;SDS011;43656;57.746;11.780;2024-02-28T06:04:33;12.93;;;8.70;;
57826;SDS011;43656;57.746;11.780;2024-02-28T06:06:58;10.90;;;7.65;;
57826;SDS011;43656;57.746;11.780;2024-02-28T06:09:24;11.30;;;7.38;;
57826;SDS011;43656;57.746;11.780;2024-02-28T06:11:49;12.07;;;7.25;;
57826;SDS011;43656;57.746;11.780;2024-02-28T06:14:15;12.98;;;7.55;;
57826;SDS011;43656;57.746;11.780;2024-02-28T06:16:40;11.98;;;7.20;;
57826;SDS011;43656;57.746;11.780;2024-02-28T06:19:06;12.50;;;7.82;;
57826;SDS011;43656;57.746;11.780;2024-02-28T06:21:31;11.60;;;7.85;;
57826;SDS011;43656;57.746;11.780;2024-02-28T06:23:56;15.50;;;8.13;;
57826;SDS011;43656;57.746;11.780;2024-02-28T06:26:22;12.00;;;7.78;;
57826;SDS011;43656;57.746;11.780;2024-02-28T06:28:48;12.13;;;7.70;;
57826;SDS011;43656;57.746;11.780;2024-02-28T06:31:15;11.80;;;7.53;;
57826;SDS011;43656;57.746;11.780;2024-02-28T06:33:44;14.55;;;8.07;;
57826;SDS011;43656;57.746;11.780;2024-02-28T06:36:10;12.73;;;7.80;;
57826;SDS011;43656;57.746;11.780;2024-02-28T06:38:36;11.80;;;7.95;;
57826;SDS011;43656;57.746;11.780;2024-02-28T06:41:04;12.57;;;8.00;;
57826;SDS011;43656;57.746;11.780;2024-02-28T06:43:32;16.35;;;8.20;;
57826;SDS011;43656;57.746;11.780;2024-02-28T06:45:59;16.50;;;8.68;;
57826;SDS011;43656;57.746;11.780;2024-02-28T06:48:24;13.15;;;8.70;;
57826;SDS011;43656;57.746;11.780;2024-02-28T06:50:50;13.82;;;8.50;;
57826;SDS011;43656;57.746;11.780;2024-02-28T06:53:15;12.55;;;9.10;;
57826;SDS011;43656;57.746;11.780;2024-02-28T06:55:42;14.57;;;9.30;;
57826;SDS011;43656;57.746;11.780;2024-02-28T06:58:07;14.57;;;9.27;;
57826;SDS011;43656;57.746;11.780;2024-02-28T07:00:33;16.70;;;9.55;;
57826;SDS011;43656;57.746;11.780;2024-02-28T07:02:58;22.50;;;9.98;;
57826;SDS011;43656;57.746;11.780;2024-02-28T07:05:23;15.93;;;10.70;;
57826;SDS011;43656;57.746;11.780;2024-02-28T07:07:49;17.05;;;9.93;;
57826;SDS011;43656;57.746;11.780;2024-02-28T07:10:14;14.38;;;10.27;;
57826;SDS011;43656;57.746;11.780;2024-02-28T07:12:40;18.13;;;11.32;;
57826;SDS011;43656;57.746;11.780;2024-02-28T07:15:06;18.40;;;10.75;;
57826;SDS011;43656;57.746;11.780;2024-02-28T07:17:31;21.23;;;11.38;;
57826;SDS011;43656;57.746;11.780;2024-02-28T07:19:57;19.27;;;11.30;;
57826;SDS011;43656;57.746;11.780;2024-02-28T07:22:22;19.15;;;11.00;;
57826;SDS011;43656;57.746;11.780;2024-02-28T07:24:47;23.42;;;11.85;;
57826;SDS011;43656;57.746;11.780;2024-02-28T07:27:13;21.50;;;12.10;;
57826;SDS011;43656;57.746;11.780;2024-02-28T07:29:38;20.83;;;12.60;;
57826;SDS011;43656;57.746;11.780;2024-02-28T07:32:04;20.67;;;11.93;;
57826;SDS011;43656;57.746;11.780;2024-02-28T07:34:30;21.20;;;12.73;;
57826;SDS011;43656;57.746;11.780;2024-02-28T07:36:55;19.88;;;12.18;;
57826;SDS011;43656;57.746;11.780;2024-02-28T07:39:24;23.73;;;12.43;;
57826;SDS011;43656;57.746;11.780;2024-02-28T07:41:52;22.77;;;12.18;;
57826;SDS011;43656;57.746;11.780;2024-02-28T07:44:18;20.73;;;11.88;;
57826;SDS011;43656;57.746;11.780;2024-02-28T07:46:43;22.25;;;12.05;;
57826;SDS011;43656;57.746;11.780;2024-02-28T07:49:09;22.48;;;12.00;;
57826;SDS011;43656;57.746;11.780;2024-02-28T07:51:36;18.90;;;11.10;;
57826;SDS011;43656;57.746;11.780;2024-02-28T07:54:01;17.88;;;11.10;;
57826;SDS011;43656;57.746;11.780;2024-02-28T07:56:26;20.60;;;11.32;;
57826;SDS011;43656;57.746;11.780;2024-02-28T07:58:52;21.33;;;11.27;;
57826;SDS011;43656;57.746;11.780;2024-02-28T08:01:18;20.50;;;11.38;;
57826;SDS011;43656;57.746;11.780;2024-02-28T08:03:43;21.15;;;11.45;;
57826;SDS011;43656;57.746;11.780;2024-02-28T08:06:10;21.35;;;11.23;;
57826;SDS011;43656;57.746;11.780;2024-02-28T08:08:35;22.42;;;11.90;;
57826;SDS011;43656;57.746;11.780;2024-02-28T08:11:01;23.70;;;11.75;;
57826;SDS011;43656;57.746;11.780;2024-02-28T08:13:28;21.50;;;12.02;;
57826;SDS011;43656;57.746;11.780;2024-02-28T08:15:54;18.58;;;11.57;;
57826;SDS011;43656;57.746;11.780;2024-02-28T08:18:19;17.85;;;10.95;;
57826;SDS011;43656;57.746;11.780;2024-02-28T08:20:45;22.42;;;13.05;;
57826;SDS011;43656;57.746;11.780;2024-02-28T08:23:10;22.05;;;12.55;;
57826;SDS011;43656;57.746;11.780;2024-02-28T08:25:37;21.13;;;12.48;;
57826;SDS011;43656;57.746;11.780;2024-02-28T08:28:03;27.08;;;12.93;;
57826;SDS011;43656;57.746;11.780;2024-02-28T08:30:30;24.33;;;13.02;;
57826;SDS011;43656;57.746;11.780;2024-02-28T08:32:56;20.67;;;12.52;;
57826;SDS011;43656;57.746;11.780;2024-02-28T08:35:23;24.65;;;12.35;;
57826;SDS011;43656;57.746;11.780;2024-02-28T08:37:48;25.35;;;12.77;;
57826;SDS011;43656;57.746;11.780;2024-02-28T08:40:14;21.90;;;12.63;;
57826;SDS011;43656;57.746;11.780;2024-02-28T08:42:39;24.75;;;13.00;;
57826;SDS011;43656;57.746;11.780;2024-02-28T08:45:06;19.85;;;11.35;;
57826;SDS011;43656;57.746;11.780;2024-02-28T08:47:33;26.88;;;13.90;;
57826;SDS011;43656;57.746;11.780;2024-02-28T08:49:58;26.20;;;14.48;;
57826;SDS011;43656;57.746;11.780;2024-02-28T08:52:24;24.13;;;13.70;;
57826;SDS011;43656;57.746;11.780;2024-02-28T08:54:50;26.88;;;14.57;;
57826;SDS011;43656;57.746;11.780;2024-02-28T08:57:17;26.13;;;15.15;;
57826;SDS011;43656;57.746;11.780;2024-02-28T08:59:45;26.13;;;15.45;;
57826;SDS011;43656;57.746;11.780;2024-02-28T09:02:10;32.28;;;16.45;;
57826;SDS011;43656;57.746;11.780;2024-02-28T09:04:36;36.22;;;16.92;;
57826;SDS011;43656;57.746;11.780;2024-02-28T09:07:01;31.48;;;16.65;;
57826;SDS011;43656;57.746;11.780;2024-02-28T09:09:27;35.30;;;18.05;;
57826;SDS011;43656;57.746;11.780;2024-02-28T09:11:59;35.22;;;18.20;;
57826;SDS011;43656;57.746;11.780;2024-02-28T09:14:24;32.90;;;17.95;;
57826;SDS011;43656;57.746;11.780;2024-02-28T09:16:49;43.30;;;19.20;;
57826;SDS011;43656;57.746;11.780;2024-02-28T09:19:15;46.97;;;19.63;;
57826;SDS011;43656;57.746;11.780;2024-02-28T09:21:40;41.55;;;19.30;;
57826;SDS011;43656;57.746;11.780;2024-02-28T09:24:05;35.15;;;18.20;;
57826;SDS011;43656;57.746;11.780;2024-02-28T09:26:31;41.75;;;19.58;;
57826;SDS011;43656;57.746;11.780;2024-02-28T09:28:57;38.47;;;18.08;;
57826;SDS011;43656;57.746;11.780;2024-02-28T09:31:22;45.97;;;20.38;;
57826;SDS011;43656;57.746;11.780;2024-02-28T09:33:47;40.40;;;19.88;;
57826;SDS011;43656;57.746;11.780;2024-02-28T09:36:13;44.50;;;21.13;;
57826;SDS011;43656;57.746;11.780;2024-02-28T09:38:39;49.53;;;21.27;;
57826;SDS011;43656;57.746;11.780;2024-02-28T09:41:06;39.40;;;20.08;;
57826;SDS011;43656;57.746;11.780;2024-02-28T09:43:31;39.15;;;20.10;;
57826;SDS011;43656;57.746;11.780;2024-02-28T09:46:05;44.03;;;20.70;;
57826;SDS011;43656;57.746;11.780;2024-02-28T09:48:36;44.30;;;20.20;;
57826;SDS011;43656;57.746;11.780;2024-02-28T09:51:04;40.03;;;20.50;;
57826;SDS011;43656;57.746;11.780;2024-02-28T09:53:30;42.42;;;20.27;;
57826;SDS011;43656;57.746;11.780;2024-02-28T09:55:56;41.30;;;20.15;;
57826;SDS011;43656;57.746;11.780;2024-02-28T09:58:21;38.72;;;20.60;;
57826;SDS011;43656;57.746;11.780;2024-02-28T10:00:48;38.85;;;18.83;;
57826;SDS011;43656;57.746;11.780;2024-02-28T10:03:16;40.78;;;19.77;;
57826;SDS011;43656;57.746;11.780;2024-02-28T10:05:48;38.83;;;19.35;;
57826;SDS011;43656;57.746;11.780;2024-02-28T10:08:14;44.80;;;20.60;;
57826;SDS011;43656;57.746;11.780;2024-02-28T10:10:47;41.75;;;19.50;;
57826;SDS011;43656;57.746;11.780;2024-02-28T10:13:15;43.05;;;20.48;;
57826;SDS011;43656;57.746;11.780;2024-02-28T10:15:41;41.15;;;18.48;;
57826;SDS011;43656;57.746;11.780;2024-02-28T10:18:06;37.15;;;18.92;;
57826;SDS011;43656;57.746;11.780;2024-02-28T10:20:31;41.13;;;19.17;;
57826;SDS011;43656;57.746;11.780;2024-02-28T10:22:57;37.17;;;18.33;;
57826;SDS011;43656;57.746;11.780;2024-02-28T10:25:22;34.88;;;18.02;;
57826;SDS011;43656;57.746;11.780;2024-02-28T10:27:48;37.63;;;19.52;;
57826;SDS011;43656;57.746;11.780;2024-02-28T10:30:14;37.17;;;18.35;;
57826;SDS011;43656;57.746;11.780;2024-02-28T10:32:48;34.67;;;18.35;;
57826;SDS011;43656;57.746;11.780;2024-02-28T10:35:14;38.28;;;18.80;;
57826;SDS011;43656;57.746;11.780;2024-02-28T10:37:42;39.70;;;17.70;;
57826;SDS011;43656;57.746;11.780;2024-02-28T10:40:10;34.75;;;17.20;;
57826;SDS011;43656;57.746;11.780;2024-02-28T10:42:38;40.80;;;17.83;;
57826;SDS011;43656;57.746;11.780;2024-02-28T10:45:07;36.38;;;17.20;;
57826;SDS011;43656;57.746;11.780;2024-02-28T10:47:35;36.97;;;15.80;;
57826;SDS011;43656;57.746;11.780;2024-02-28T10:50:06;30.88;;;15.00;;
57826;SDS011;43656;57.746;11.780;2024-02-28T10:52:37;29.10;;;14.85;;
57826;SDS011;43656;57.746;11.780;2024-02-28T10:55:07;32.33;;;15.98;;
57826;SDS011;43656;57.746;11.780;2024-02-28T10:57:33;44.45;;;23.17;;
57826;SDS011;43656;57.746;11.780;2024-02-28T11:00:01;37.17;;;17.98;;
57826;SDS011;43656;57.746;11.780;2024-02-28T11:02:29;37.33;;;16.52;;
57826;SDS011;43656;57.746;11.780;2024-02-28T11:04:59;34.88;;;16.65;;
57826;SDS011;43656;57.746;11.780;2024-02-28T11:07:26;33.05;;;16.60;;
57826;SDS011;43656;57.746;11.780;2024-02-28T11:09:55;36.95;;;17.05;;
57826;SDS011;43656;57.746;11.780;2024-02-28T11:12:27;34.63;;;15.07;;
57826;SDS011;43656;57.746;11.780;2024-02-28T11:14:57;29.92;;;14.27;;
57826;SDS011;43656;57.746;11.780;2024-02-28T11:17:32;23.95;;;12.07;;
57826;SDS011;43656;57.746;11.780;2024-02-28T11:19:58;27.08;;;12.70;;
57826;SDS011;43656;57.746;11.780;2024-02-28T11:22:23;30.75;;;11.95;;
57826;SDS011;43656;57.746;11.780;2024-02-28T11:24:53;26.75;;;11.80;;
57826;SDS011;43656;57.746;11.780;2024-02-28T11:27:19;25.10;;;11.70;;
57826;SDS011;43656;57.746;11.780;2024-02-28T11:29:45;21.88;;;11.13;;
57826;SDS011;43656;57.746;11.780;2024-02-28T11:32:12;29.02;;;12.00;;
57826;SDS011;43656;57.746;11.780;2024-02-28T11:34:38;27.20;;;11.20;;
57826;SDS011;43656;57.746;11.780;2024-02-28T11:37:08;26.13;;;11.30;;
57826;SDS011;43656;57.746;11.780;2024-02-28T11:39:34;26.88;;;10.35;;
57826;SDS011;43656;57.746;11.780;2024-02-28T11:42:12;26.20;;;10.90;;
57826;SDS011;43656;57.746;11.780;2024-02-28T11:44:39;25.85;;;11.63;;
57826;SDS011;43656;57.746;11.780;2024-02-28T11:47:05;26.52;;;12.38;;
57826;SDS011;43656;57.746;11.780;2024-02-28T11:49:34;28.88;;;12.40;;
57826;SDS011;43656;57.746;11.780;2024-02-28T11:52:00;28.38;;;12.63;;
57826;SDS011;43656;57.746;11.780;2024-02-28T11:54:25;32.20;;;12.55;;
57826;SDS011;43656;57.746;11.780;2024-02-28T11:56:50;35.95;;;12.55;;
57826;SDS011;43656;57.746;11.780;2024-02-28T11:59:16;32.85;;;12.60;;
57826;SDS011;43656;57.746;11.780;2024-02-28T12:01:42;29.10;;;11.55;;
57826;SDS011;43656;57.746;11.780;2024-02-28T12:04:17;27.38;;;12.02;;
57826;SDS011;43656;57.746;11.780;2024-02-28T12:06:42;39.05;;;14.20;;
57826;SDS011;43656;57.746;11.780;2024-02-28T12:09:09;30.27;;;14.60;;
57826;SDS011;43656;57.746;11.780;2024-02-28T12:11:39;35.05;;;14.57;;
57826;SDS011;43656;57.746;11.780;2024-02-28T12:14:05;37.10;;;14.77;;
57826;SDS011;43656;57.746;11.780;2024-02-28T12:16:34;31.27;;;15.27;;
57826;SDS011;43656;57.746;11.780;2024-02-28T12:19:04;33.17;;;14.40;;
57826;SDS011;43656;57.746;11.780;2024-02-28T12:21:33;28.80;;;13.43;;
57826;SDS011;43656;57.746;11.780;2024-02-28T12:23:58;33.90;;;14.02;;
57826;SDS011;43656;57.746;11.780;2024-02-28T12:26:23;34.03;;;13.70;;
57826;SDS011;43656;57.746;11.780;2024-02-28T12:28:49;28.02;;;12.60;;
57826;SDS011;43656;57.746;11.780;2024-02-28T12:31:14;28.08;;;12.70;;
57826;SDS011;43656;57.746;11.780;2024-02-28T12:33:43;35.22;;;12.55;;
57826;SDS011;43656;57.746;11.780;2024-02-28T12:36:08;28.83;;;12.35;;
57826;SDS011;43656;57.746;11.780;2024-02-28T12:38:35;29.13;;;12.18;;
57826;SDS011;43656;57.746;11.780;2024-02-28T12:41:01;28.00;;;11.70;;
57826;SDS011;43656;57.746;11.780;2024-02-28T12:43:29;26.67;;;12.07;;
57826;SDS011;43656;57.746;11.780;2024-02-28T12:45:55;32.35;;;13.18;;
57826;SDS011;43656;57.746;11.780;2024-02-28T12:48:21;29.33;;;12.45;;
57826;SDS011;43656;57.746;11.780;2024-02-28T12:50:46;27.42;;;13.10;;
57826;SDS011;43656;57.746;11.780;2024-02-28T12:53:12;31.88;;;13.40;;
57826;SDS011;43656;57.746;11.780;2024-02-28T12:55:39;37.90;;;13.70;;
57826;SDS011;43656;57.746;11.780;2024-02-28T12:58:04;32.70;;;13.30;;
57826;SDS011;43656;57.746;11.780;2024-02-28T13:00:30;42.05;;;14.38;;
57826;SDS011;43656;57.746;11.780;2024-02-28T13:02:56;39.95;;;14.45;;
57826;SDS011;43656;57.746;11.780;2024-02-28T13:05:21;32.15;;;12.60;;
57826;SDS011;43656;57.746;11.780;2024-02-28T13:07:46;31.38;;;13.20;;
57826;SDS011;43656;57.746;11.780;2024-02-28T13:10:12;31.77;;;12.02;;
57826;SDS011;43656;57.746;11.780;2024-02-28T13:12:37;31.58;;;12.63;;
57826;SDS011;43656;57.746;11.780;2024-02-28T13:15:04;30.17;;;12.27;;
57826;SDS011;43656;57.746;11.780;2024-02-28T13:17:30;36.30;;;12.57;;
57826;SDS011;43656;57.746;11.780;2024-02-28T13:19:57;31.55;;;12.57;;
57826;SDS011;43656;57.746;11.780;2024-02-28T13:22:22;32.67;;;12.15;;
57826;SDS011;43656;57.746;11.780;2024-02-28T13:24:47;36.05;;;12.80;;
57826;SDS011;43656;57.746;11.780;2024-02-28T13:27:13;35.22;;;13.13;;
57826;SDS011;43656;57.746;11.780;2024-02-28T13:29:38;35.22;;;14.85;;
57826;SDS011;43656;57.746;11.780;2024-02-28T13:32:04;39.97;;;15.35;;
57826;SDS011;43656;57.746;11.780;2024-02-28T13:34:29;35.08;;;14.40;;
57826;SDS011;43656;57.746;11.780;2024-02-28T13:36:55;35.78;;;15.10;;
57826;SDS011;43656;57.746;11.780;2024-02-28T13:39:20;33.33;;;15.60;;
57826;SDS011;43656;57.746;11.780;2024-02-28T13:41:48;34.47;;;14.70;;
57826;SDS011;43656;57.746;11.780;2024-02-28T13:44:16;37.90;;;15.13;;
57826;SDS011;43656;57.746;11.780;2024-02-28T13:46:43;39.05;;;16.10;;
57826;SDS011;43656;57.746;11.780;2024-02-28T13:49:08;37.15;;;15.32;;
57826;SDS011;43656;57.746;11.780;2024-02-28T13:51:34;36.45;;;15.48;;
57826;SDS011;43656;57.746;11.780;2024-02-28T13:53:59;39.67;;;15.35;;
57826;SDS011;43656;57.746;11.780;2024-02-28T13:56:25;31.92;;;14.15;;
57826;SDS011;43656;57.746;11.780;2024-02-28T13:58:50;35.17;;;14.95;;
57826;SDS011;43656;57.746;11.780;2024-02-28T14:01:15;38.22;;;15.07;;
57826;SDS011;43656;57.746;11.780;2024-02-28T14:03:42;37.72;;;14.70;;
57826;SDS011;43656;57.746;11.780;2024-02-28T14:06:08;35.30;;;14.93;;
57826;SDS011;43656;57.746;11.780;2024-02-28T14:08:33;38.08;;;15.32;;
57826;SDS011;43656;57.746;11.780;2024-02-28T14:10:58;34.38;;;15.18;;
57826;SDS011;43656;57.746;11.780;2024-02-28T14:13:24;42.78;;;15.75;;